Time;durP1;ratioP1;P1;durP2;ratioP2;P2;SDS_P1;SDS_P2;PMS_P1;PMS_P2;Temp;Humidity;BMP_temperature;BMP_pressure;BME280_temperature;BME280_humidity;BME280_pressure;Samples;Min_cycle;Max_cycle;Signal;HPM_P1;HPM_P2
2021/08/14 00:00:38;;;;;;;11.60;9.37;;;22.90;99.90;;;;;;4994878;28;20481;-66
2021/08/14 00:03:05;;;;;;;9.50;8.70;;;22.80;99.90;;;;;;4994845;28;20465;-66
2021/08/14 00:05:32;;;;;;;9.00;8.10;;;22.80;99.90;;;;;;4994360;28;20519;-66
2021/08/14 00:08:00;;;;;;;9.13;8.37;;;22.80;99.90;;;;;;4994715;28;20481;-66
2021/08/14 00:10:26;;;;;;;9.37;8.67;;;22.70;99.90;;;;;;4994084;28;20454;-66
2021/08/14 00:12:53;;;;;;;10.90;8.70;;;22.60;99.90;;;;;;4994575;28;20453;-66
2021/08/14 00:15:20;;;;;;;9.37;8.63;;;22.60;99.90;;;;;;4994615;28;20485;-66
2021/08/14 00:17:46;;;;;;;11.30;8.87;;;22.50;99.90;;;;;;4994627;28;20453;-64
2021/08/14 00:20:13;;;;;;;9.83;8.30;;;22.50;99.90;;;;;;4994479;28;20489;-65
2021/08/14 00:22:40;;;;;;;9.97;9.17;;;22.40;99.90;;;;;;4994461;28;20484;-66
2021/08/14 00:25:09;;;;;;;8.47;7.77;;;22.40;99.90;;;;;;4994314;28;20477;-66
2021/08/14 00:27:36;;;;;;;10.00;9.13;;;22.30;99.90;;;;;;4994350;28;20464;-66
2021/08/14 00:30:04;;;;;;;8.93;8.13;;;22.30;99.90;;;;;;4994471;28;20453;-66
2021/08/14 00:32:30;;;;;;;9.90;8.90;;;22.20;99.90;;;;;;4994329;28;20454;-66
2021/08/14 00:34:57;;;;;;;9.43;8.63;;;22.20;99.90;;;;;;4994376;28;20486;-66
2021/08/14 00:37:24;;;;;;;13.23;9.00;;;22.20;99.90;;;;;;4994259;28;20465;-66
2021/08/14 00:39:51;;;;;;;8.73;8.03;;;22.20;99.90;;;;;;4993878;28;20477;-66
2021/08/14 00:42:19;;;;;;;8.37;7.67;;;22.20;99.90;;;;;;4994244;28;20493;-66
2021/08/14 00:44:46;;;;;;;10.03;9.10;;;22.10;99.90;;;;;;4994105;28;20478;-66
2021/08/14 00:47:13;;;;;;;9.00;8.30;;;22.10;99.90;;;;;;4994288;28;20457;-66
2021/08/14 00:49:39;;;;;;;10.13;9.23;;;22.10;99.90;;;;;;4993974;28;20791;-66
2021/08/14 00:52:07;;;;;;;9.97;9.17;;;22.10;99.90;;;;;;4994254;28;20462;-66
2021/08/14 00:54:33;;;;;;;9.00;8.17;;;22.10;99.90;;;;;;4994101;28;20532;-66
2021/08/14 00:57:00;;;;;;;9.27;8.37;;;22.10;99.90;;;;;;4994907;28;20488;-66
2021/08/14 00:59:29;;;;;;;9.03;8.23;;;22.00;99.90;;;;;;4994095;28;20853;-66
2021/08/14 01:01:56;;;;;;;9.83;8.93;;;22.00;99.90;;;;;;4997162;28;20814;-66
2021/08/14 01:04:23;;;;;;;8.60;8.00;;;22.00;99.90;;;;;;4997646;28;20490;-66
2021/08/14 01:06:51;;;;;;;8.47;7.70;;;22.00;99.90;;;;;;4998130;28;20454;-64
2021/08/14 01:09:17;;;;;;;8.93;8.23;;;21.90;99.90;;;;;;4998013;28;20457;-64
2021/08/14 01:11:44;;;;;;;9.27;8.37;;;21.90;99.90;;;;;;4998024;28;20461;-64
2021/08/14 01:14:13;;;;;;;9.50;8.50;;;21.90;99.90;;;;;;4997473;28;21007;-64
2021/08/14 01:16:41;;;;;;;9.30;8.50;;;21.90;99.90;;;;;;4997982;28;20484;-64
2021/08/14 01:19:08;;;;;;;9.07;8.30;;;21.80;99.90;;;;;;4997771;28;20457;-65
2021/08/14 01:21:35;;;;;;;9.70;8.90;;;21.80;99.90;;;;;;4997765;28;20457;-64
2021/08/14 01:24:04;;;;;;;9.67;8.87;;;21.80;99.90;;;;;;4997305;28;21007;-64
2021/08/14 01:26:32;;;;;;;10.20;9.30;;;21.80;99.90;;;;;;4997658;28;20454;-64
2021/08/14 01:29:00;;;;;;;9.83;9.10;;;21.70;99.90;;;;;;4997582;28;20457;-64
2021/08/14 01:31:27;;;;;;;9.87;9.07;;;21.70;99.90;;;;;;4997265;28;20454;-65
2021/08/14 01:33:56;;;;;;;9.47;8.67;;;21.70;99.90;;;;;;4997444;28;20474;-64
2021/08/14 01:36:23;;;;;;;12.43;9.87;;;21.70;99.90;;;;;;4997625;28;20458;-64
2021/08/14 01:38:51;;;;;;;9.00;8.10;;;21.60;99.90;;;;;;4997538;28;20536;-64
2021/08/14 01:41:19;;;;;;;10.27;9.37;;;21.60;99.90;;;;;;4997374;28;20488;-64
2021/08/14 01:43:53;;;;;;;11.60;9.40;;;21.60;99.90;;;;;;4997253;28;20473;-64
2021/08/14 01:46:22;;;;;;;9.33;8.53;;;21.60;99.90;;;;;;4997367;28;20460;-64
2021/08/14 01:48:48;;;;;;;10.90;9.90;;;21.60;99.90;;;;;;4997324;28;20508;-64
2021/08/14 01:51:15;;;;;;;9.77;8.87;;;21.50;99.90;;;;;;4996931;28;20966;-65
2021/08/14 01:53:46;;;;;;;9.73;8.83;;;21.50;99.90;;;;;;4997212;28;20477;-64
2021/08/14 01:56:13;;;;;;;10.23;9.43;;;21.50;99.90;;;;;;4997306;28;20508;-64
2021/08/14 01:58:40;;;;;;;11.70;10.33;;;21.50;99.90;;;;;;4997031;28;20457;-64
2021/08/14 02:01:06;;;;;;;11.03;9.67;;;21.40;99.90;;;;;;4997037;28;20501;-64
2021/08/14 02:03:35;;;;;;;11.03;9.90;;;21.40;99.90;;;;;;4996775;28;20477;-64
2021/08/14 02:06:03;;;;;;;11.43;10.03;;;21.40;99.90;;;;;;4996804;28;20962;-64
2021/08/14 02:08:29;;;;;;;11.83;10.63;;;21.40;99.90;;;;;;4996912;28;20485;-64
2021/08/14 02:10:56;;;;;;;10.87;9.87;;;21.30;99.90;;;;;;4996962;28;20449;-64
2021/08/14 02:13:23;;;;;;;11.70;10.60;;;21.30;99.90;;;;;;4996738;28;20465;-64
2021/08/14 02:15:50;;;;;;;11.63;10.37;;;21.30;99.90;;;;;;4996870;28;20458;-64
2021/08/14 02:18:17;;;;;;;11.27;10.27;;;21.20;99.90;;;;;;4996645;28;20464;-64
2021/08/14 02:20:45;;;;;;;10.87;9.97;;;21.20;99.90;;;;;;4996566;28;20477;-64
2021/08/14 02:23:11;;;;;;;11.93;10.83;;;21.20;99.90;;;;;;4996640;28;20461;-64
2021/08/14 02:25:38;;;;;;;12.30;11.20;;;21.20;99.90;;;;;;4996783;28;20453;-64
2021/08/14 02:28:05;;;;;;;12.13;10.90;;;21.20;99.90;;;;;;4996649;28;20458;-64
2021/08/14 02:30:32;;;;;;;11.90;10.90;;;21.10;99.90;;;;;;4996529;28;20449;-64
2021/08/14 02:32:58;;;;;;;13.83;12.63;;;21.10;99.90;;;;;;4996149;28;20465;-64
2021/08/14 02:35:25;;;;;;;12.00;10.90;;;21.10;99.90;;;;;;4996341;28;20483;-64
2021/08/14 02:37:53;;;;;;;12.20;10.93;;;21.10;99.90;;;;;;4996554;28;20468;-64
2021/08/14 02:40:20;;;;;;;13.27;12.07;;;21.10;99.90;;;;;;4996419;28;20470;-64
2021/08/14 02:42:47;;;;;;;13.73;12.53;;;21.00;99.90;;;;;;4996027;28;20469;-64
2021/08/14 02:45:14;;;;;;;13.37;12.17;;;21.00;99.90;;;;;;4995916;28;20478;-64
2021/08/14 02:47:40;;;;;;;14.00;12.90;;;21.00;99.90;;;;;;4996264;28;20789;-64
2021/08/14 02:50:09;;;;;;;14.10;12.87;;;21.00;99.90;;;;;;4995795;28;20978;-64
2021/08/14 02:52:35;;;;;;;14.60;13.23;;;20.90;99.90;;;;;;4995944;28;20500;-64
2021/08/14 02:55:04;;;;;;;13.90;12.60;;;20.80;99.90;;;;;;4996033;28;20481;-64
2021/08/14 02:57:31;;;;;;;14.10;12.40;;;20.80;99.90;;;;;;4995678;28;21004;-64
2021/08/14 02:59:57;;;;;;;12.30;11.23;;;20.70;99.90;;;;;;4995601;28;21011;-64
2021/08/14 03:02:24;;;;;;;12.43;11.30;;;20.80;99.90;;;;;;4995596;28;20848;-64
2021/08/14 03:04:51;;;;;;;13.10;11.80;;;20.80;99.90;;;;;;4995447;28;20485;-64
2021/08/14 03:07:18;;;;;;;12.13;11.03;;;20.70;99.90;;;;;;4995723;28;20454;-64
2021/08/14 03:09:44;;;;;;;12.37;11.17;;;20.80;99.90;;;;;;4995677;28;20450;-65
2021/08/14 03:12:12;;;;;;;13.50;12.30;;;20.70;99.90;;;;;;4995657;28;20481;-64
2021/08/14 03:14:39;;;;;;;13.50;12.23;;;20.70;99.90;;;;;;4995355;28;20477;-64
2021/08/14 03:17:06;;;;;;;14.20;13.00;;;20.70;99.90;;;;;;4995772;28;20465;-64
2021/08/14 03:19:33;;;;;;;12.40;11.20;;;20.70;99.90;;;;;;4995357;28;20578;-64
2021/08/14 03:21:59;;;;;;;12.63;11.53;;;20.70;99.90;;;;;;4995505;28;20481;-64
2021/08/14 03:24:26;;;;;;;13.83;12.43;;;20.60;99.90;;;;;;4994531;28;20476;-64
2021/08/14 03:26:53;;;;;;;13.00;11.90;;;20.50;99.90;;;;;;4995432;28;20459;-64
2021/08/14 03:29:21;;;;;;;13.13;12.03;;;20.60;99.90;;;;;;4995449;28;20453;-64
2021/08/14 03:31:47;;;;;;;13.20;11.93;;;20.50;99.90;;;;;;4995337;28;20952;-64
2021/08/14 03:34:14;;;;;;;13.60;12.40;;;20.50;99.90;;;;;;4995249;28;20879;-64
2021/08/14 03:36:41;;;;;;;13.57;12.47;;;20.50;99.90;;;;;;4995441;28;20492;-64
2021/08/14 03:39:08;;;;;;;13.63;12.50;;;20.50;99.90;;;;;;4995397;28;20458;-64
2021/08/14 03:41:35;;;;;;;14.03;12.90;;;20.50;99.90;;;;;;4995383;28;20480;-64
2021/08/14 03:44:02;;;;;;;14.43;13.03;;;20.40;99.90;;;;;;4995046;28;20517;-64
2021/08/14 03:46:30;;;;;;;13.13;12.03;;;20.40;99.90;;;;;;4994707;28;20461;-64
2021/08/14 03:48:57;;;;;;;14.17;12.77;;;20.40;99.90;;;;;;4995092;28;20457;-64
2021/08/14 03:51:24;;;;;;;13.93;12.80;;;20.40;99.90;;;;;;4995383;28;20453;-64
2021/08/14 03:53:50;;;;;;;14.10;12.70;;;20.40;99.90;;;;;;4994868;28;20888;-64
2021/08/14 03:56:17;;;;;;;15.27;13.23;;;20.40;99.90;;;;;;4994845;28;20454;-64
2021/08/14 03:58:44;;;;;;;13.67;12.47;;;20.40;99.90;;;;;;4994643;28;20946;-64
2021/08/14 04:01:11;;;;;;;15.50;14.10;;;20.40;99.90;;;;;;4994556;28;20481;-64
2021/08/14 04:03:39;;;;;;;16.60;15.00;;;20.40;99.90;;;;;;4994834;28;20496;-64
2021/08/14 04:06:05;;;;;;;15.57;14.17;;;20.30;99.90;;;;;;4994909;28;20848;-64
2021/08/14 04:08:32;;;;;;;14.67;13.37;;;20.30;99.90;;;;;;4994396;28;20824;-64
2021/08/14 04:10:59;;;;;;;14.73;13.40;;;20.40;99.90;;;;;;4994651;28;20450;-65
2021/08/14 04:13:26;;;;;;;14.10;12.90;;;20.40;99.90;;;;;;4994533;28;20563;-64
2021/08/14 04:15:52;;;;;;;13.60;12.23;;;20.40;99.90;;;;;;4994582;28;20813;-64
2021/08/14 04:18:19;;;;;;;14.50;12.97;;;20.40;99.90;;;;;;4994453;28;20464;-64
2021/08/14 04:20:47;;;;;;;15.80;14.40;;;20.30;99.90;;;;;;4994361;28;20485;-64
2021/08/14 04:23:14;;;;;;;13.87;12.77;;;20.30;99.90;;;;;;4994458;28;20458;-64
2021/08/14 04:25:41;;;;;;;14.60;13.30;;;20.30;99.90;;;;;;4994319;28;20457;-64
2021/08/14 04:28:07;;;;;;;13.77;12.67;;;20.30;99.90;;;;;;4994283;28;20475;-64
2021/08/14 04:30:34;;;;;;;15.50;14.20;;;20.30;99.90;;;;;;4994393;28;20453;-64
2021/08/14 04:33:01;;;;;;;15.53;14.10;;;20.20;99.90;;;;;;4993924;28;20967;-64
2021/08/14 04:35:27;;;;;;;17.30;15.70;;;20.20;99.90;;;;;;4993387;28;20474;-64
2021/08/14 04:37:55;;;;;;;17.30;15.63;;;20.20;99.90;;;;;;4994311;28;20454;-64
2021/08/14 04:40:22;;;;;;;17.37;15.70;;;20.10;99.90;;;;;;4994236;28;20465;-64
2021/08/14 04:42:49;;;;;;;18.33;15.30;;;20.10;99.90;;;;;;4993853;28;20454;-64
2021/08/14 04:45:16;;;;;;;17.40;15.67;;;20.10;99.90;;;;;;4994048;28;20486;-64
2021/08/14 04:47:43;;;;;;;15.07;13.67;;;20.10;99.90;;;;;;4994016;28;20464;-64
2021/08/14 04:50:12;;;;;;;16.20;14.80;;;20.00;99.90;;;;;;4993953;28;20469;-64
2021/08/14 04:52:39;;;;;;;15.67;14.00;;;20.00;99.90;;;;;;4994112;28;20470;-64
2021/08/14 04:55:08;;;;;;;16.30;14.87;;;19.90;99.90;;;;;;4994048;28;20485;-65
2021/08/14 04:57:34;;;;;;;15.40;13.80;;;19.90;99.90;;;;;;4993966;28;20458;-64
2021/08/14 05:00:01;;;;;;;15.43;13.93;;;19.90;99.90;;;;;;4993608;28;20940;-64
2021/08/14 05:02:29;;;;;;;17.17;15.47;;;20.00;99.90;;;;;;4993888;28;20473;-64
2021/08/14 05:04:55;;;;;;;14.87;13.57;;;20.00;99.90;;;;;;4993752;28;20481;-64
2021/08/14 05:07:22;;;;;;;15.87;14.27;;;20.10;99.90;;;;;;4994337;28;20457;-64
2021/08/14 05:09:50;;;;;;;15.37;14.00;;;20.10;99.90;;;;;;4993979;28;20453;-64
2021/08/14 05:12:18;;;;;;;15.90;14.50;;;20.10;99.90;;;;;;4993875;28;20557;-64
2021/08/14 05:14:45;;;;;;;14.80;13.50;;;20.20;99.90;;;;;;4993798;28;20481;-64
2021/08/14 05:17:11;;;;;;;15.10;13.70;;;20.20;99.90;;;;;;4993885;28;20512;-64
2021/08/14 05:19:38;;;;;;;15.73;13.90;;;20.30;99.90;;;;;;4993849;28;20466;-64
2021/08/14 05:22:05;;;;;;;15.63;14.33;;;20.30;99.90;;;;;;4993739;28;20477;-64
2021/08/14 05:24:32;;;;;;;15.43;14.03;;;20.30;99.90;;;;;;4993621;28;20484;-64
2021/08/14 05:26:58;;;;;;;14.47;13.10;;;20.40;99.90;;;;;;4993877;28;20458;-64
2021/08/14 05:29:26;;;;;;;15.53;14.00;;;20.40;99.90;;;;;;4993793;28;20464;-66
2021/08/14 05:31:53;;;;;;;13.67;12.50;;;20.40;99.90;;;;;;4993661;28;20537;-65
2021/08/14 05:34:20;;;;;;;15.17;13.70;;;20.50;99.90;;;;;;4993616;28;20477;-64
2021/08/14 05:36:46;;;;;;;14.57;13.10;;;20.40;99.90;;;;;;4993682;28;20454;-64
2021/08/14 05:39:13;;;;;;;14.80;13.43;;;20.50;99.90;;;;;;4993229;28;20457;-64
2021/08/14 05:41:42;;;;;;;14.97;13.43;;;20.50;99.90;;;;;;4993174;28;20540;-63
2021/08/14 05:44:08;;;;;;;14.93;13.50;;;20.70;99.90;;;;;;4993480;28;20473;-64
2021/08/14 05:46:36;;;;;;;16.20;14.70;;;20.80;99.90;;;;;;4994301;28;20458;-63
2021/08/14 05:49:03;;;;;;;16.00;14.50;;;21.20;99.90;;;;;;4996941;28;20458;-64
2021/08/14 05:51:30;;;;;;;17.87;15.97;;;21.50;99.90;;;;;;4997166;28;20457;-64
2021/08/14 05:53:56;;;;;;;15.73;14.30;;;21.80;99.90;;;;;;4997207;28;20474;-64
2021/08/14 05:56:23;;;;;;;16.07;14.57;;;22.20;99.90;;;;;;4997172;28;20480;-64
2021/08/14 05:58:50;;;;;;;15.57;14.17;;;22.50;99.90;;;;;;4997155;28;20457;-63
2021/08/14 06:01:16;;;;;;;16.30;14.70;;;22.90;99.90;;;;;;4997407;28;20465;-63
2021/08/14 06:03:44;;;;;;;17.30;13.20;;;23.30;99.90;;;;;;4996864;28;20488;-64
2021/08/14 06:06:11;;;;;;;15.63;14.10;;;23.70;99.90;;;;;;4997070;28;20442;-64
2021/08/14 06:08:39;;;;;;;14.23;13.03;;;24.00;99.90;;;;;;4996826;28;20454;-64
2021/08/14 06:11:05;;;;;;;14.50;13.20;;;24.30;99.90;;;;;;4997033;28;20453;-63
2021/08/14 06:13:32;;;;;;;14.67;13.13;;;24.60;99.90;;;;;;4997123;28;20453;-63
2021/08/14 06:15:59;;;;;;;15.70;13.80;;;25.00;99.90;;;;;;4997025;28;20481;-64
2021/08/14 06:18:26;;;;;;;12.70;11.70;;;25.30;99.90;;;;;;4996938;28;20835;-65
2021/08/14 06:20:54;;;;;;;14.97;13.57;;;25.70;99.90;;;;;;4996921;28;20457;-64
2021/08/14 06:23:20;;;;;;;13.80;12.43;;;26.00;99.90;;;;;;4996815;28;20438;-64
2021/08/14 06:25:47;;;;;;;14.40;13.30;;;26.40;99.90;;;;;;4996991;28;20515;-64
2021/08/14 06:28:15;;;;;;;14.20;13.00;;;26.70;99.90;;;;;;4996836;28;20477;-64
2021/08/14 06:30:42;;;;;;;13.60;12.40;;;27.00;99.90;;;;;;4996841;28;20504;-65
2021/08/14 06:33:08;;;;;;;15.93;11.80;;;27.40;99.90;;;;;;4996605;28;20461;-65
2021/08/14 06:35:35;;;;;;;12.67;11.47;;;27.80;99.90;;;;;;4996512;28;20480;-65
2021/08/14 06:38:03;;;;;;;13.03;12.03;;;28.20;99.90;;;;;;4996906;28;20454;-65
2021/08/14 06:40:30;;;;;;;12.73;11.70;;;28.30;99.90;;;;;;4996556;28;20508;-65
2021/08/14 06:42:57;;;;;;;12.33;11.33;;;28.60;99.90;;;;;;4997291;28;20485;-62
2021/08/14 06:45:24;;;;;;;11.67;10.67;;;28.80;99.90;;;;;;4997581;28;20482;-62
2021/08/14 06:47:50;;;;;;;12.33;11.20;;;29.10;99.90;;;;;;4998382;28;20457;-62
2021/08/14 06:50:18;;;;;;;12.70;11.10;;;29.30;99.90;;;;;;4997958;28;20458;-62
2021/08/14 06:52:45;;;;;;;12.33;11.23;;;29.50;99.90;;;;;;4997872;28;20469;-62
2021/08/14 06:55:13;;;;;;;13.17;12.07;;;29.70;99.90;;;;;;4997867;28;20524;-62
2021/08/14 06:57:40;;;;;;;13.53;11.40;;;29.80;99.90;;;;;;4997918;28;20465;-63
2021/08/14 07:00:08;;;;;;;11.60;10.50;;;29.90;99.90;;;;;;4996944;28;20468;-63
2021/08/14 07:02:34;;;;;;;13.20;11.90;;;30.30;99.90;;;;;;4996177;28;20473;-63
2021/08/14 07:05:02;;;;;;;15.27;10.83;;;30.60;99.90;;;;;;4997024;28;20547;-63
2021/08/14 07:07:29;;;;;;;17.90;11.23;;;30.80;99.90;;;;;;4996382;28;20457;-63
2021/08/14 07:09:56;;;;;;;11.30;10.20;;;30.90;99.90;;;;;;4996112;28;20453;-63
2021/08/14 07:12:24;;;;;;;11.37;10.37;;;31.10;99.90;;;;;;4996949;28;20453;-63
2021/08/14 07:14:50;;;;;;;10.80;9.70;;;31.50;99.90;;;;;;4997193;28;20597;-63
2021/08/14 07:17:17;;;;;;;12.73;10.97;;;31.50;99.90;;;;;;4997098;28;20442;-63
2021/08/14 07:19:44;;;;;;;11.97;10.40;;;31.60;99.60;;;;;;4996957;28;20468;-63
2021/08/14 07:22:10;;;;;;;10.87;9.73;;;31.80;99.50;;;;;;4996109;28;20794;-63
2021/08/14 07:24:37;;;;;;;9.23;8.37;;;32.10;98.70;;;;;;4996537;28;20484;-63
2021/08/14 07:27:04;;;;;;;11.30;10.17;;;32.40;99.20;;;;;;4996771;28;20464;-63
2021/08/14 07:29:32;;;;;;;11.17;10.30;;;32.50;97.40;;;;;;4996413;28;20461;-63
2021/08/14 07:31:59;;;;;;;12.03;10.90;;;32.70;96.60;;;;;;4996293;28;20450;-63
2021/08/14 07:34:26;;;;;;;9.80;8.90;;;32.80;95.80;;;;;;4995774;28;20485;-63
2021/08/14 07:36:52;;;;;;;10.93;9.93;;;32.90;95.40;;;;;;4995622;28;20470;-63
2021/08/14 07:39:19;;;;;;;9.40;8.80;;;33.20;94.80;;;;;;4995565;28;20462;-63
2021/08/14 07:41:46;;;;;;;10.07;9.33;;;33.30;95.10;;;;;;4995885;28;20473;-63
2021/08/14 07:44:12;;;;;;;11.40;9.70;;;33.60;94.10;;;;;;4995571;28;20477;-63
2021/08/14 07:46:40;;;;;;;9.70;8.80;;;33.80;93.30;;;;;;4996541;28;20461;-63
2021/08/14 07:49:07;;;;;;;9.03;8.23;;;34.00;93.00;;;;;;4995261;28;20475;-63
2021/08/14 07:51:34;;;;;;;10.73;9.73;;;34.00;91.60;;;;;;4994968;28;20861;-63
2021/08/14 07:54:00;;;;;;;10.13;9.33;;;34.20;91.50;;;;;;4994510;28;20473;-63
2021/08/14 07:56:27;;;;;;;10.90;9.83;;;34.40;92.00;;;;;;4995078;28;20856;-63
2021/08/14 07:58:54;;;;;;;9.43;8.67;;;34.70;91.00;;;;;;4995091;28;20461;-63
2021/08/14 08:01:21;;;;;;;10.10;9.20;;;34.90;89.10;;;;;;4995244;28;20459;-64
2021/08/14 08:03:49;;;;;;;9.63;8.53;;;35.40;90.00;;;;;;4994901;28;20493;-63
2021/08/14 08:06:15;;;;;;;11.87;10.97;;;35.60;86.90;;;;;;4995584;28;20854;-63
2021/08/14 08:08:42;;;;;;;10.50;9.50;;;36.10;84.30;;;;;;4994741;28;20905;-63
2021/08/14 08:11:09;;;;;;;9.80;8.97;;;36.10;82.60;;;;;;4995482;28;20462;-63
2021/08/14 08:13:35;;;;;;;8.97;8.27;;;36.50;82.90;;;;;;4995462;28;20487;-64
2021/08/14 08:16:02;;;;;;;9.63;7.60;;;36.60;82.20;;;;;;4996176;28;20461;-63
2021/08/14 08:18:29;;;;;;;8.90;8.00;;;36.50;76.50;;;;;;4995614;28;20454;-62
2021/08/14 08:20:57;;;;;;;8.97;8.27;;;36.80;77.20;;;;;;4996198;28;20458;-64
2021/08/14 08:23:24;;;;;;;9.10;8.40;;;36.90;76.20;;;;;;4995466;28;20476;-63
2021/08/14 08:25:51;;;;;;;9.33;8.53;;;37.10;74.90;;;;;;4995132;28;20640;-63
2021/08/14 08:28:21;;;;;;;8.10;7.57;;;37.30;76.30;;;;;;4994480;28;20905;-64
2021/08/14 08:30:48;;;;;;;8.23;7.63;;;37.50;74.00;;;;;;4994828;28;20465;-63
2021/08/14 08:33:15;;;;;;;8.70;8.00;;;37.50;74.00;;;;;;4994396;28;20457;-63
2021/08/14 08:35:42;;;;;;;9.83;8.10;;;37.90;70.90;;;;;;4994408;28;20559;-63
2021/08/14 08:38:10;;;;;;;7.93;7.43;;;38.10;68.70;;;;;;4994342;28;20828;-63
2021/08/14 08:40:39;;;;;;;9.73;8.33;;;37.70;72.20;;;;;;4994233;28;20456;-63
2021/08/14 08:43:06;;;;;;;8.13;7.53;;;37.80;70.30;;;;;;4993997;28;20517;-63
2021/08/14 08:45:33;;;;;;;7.70;7.20;;;38.00;68.20;;;;;;4994170;28;20482;-65
2021/08/14 08:48:03;;;;;;;8.43;7.77;;;38.40;70.10;;;;;;4994254;28;20469;-64
2021/08/14 08:50:31;;;;;;;32.23;7.50;;;38.90;66.10;;;;;;4993850;28;20456;-63
2021/08/14 08:52:58;;;;;;;8.37;7.60;;;39.30;63.70;;;;;;4993909;28;20614;-64
2021/08/14 08:55:26;;;;;;;7.93;7.23;;;39.40;63.30;;;;;;4993795;28;20760;-63
2021/08/14 08:57:53;;;;;;;7.50;6.90;;;39.10;64.10;;;;;;4994022;28;20571;-64
2021/08/14 09:00:19;;;;;;;7.30;6.80;;;39.20;63.60;;;;;;4993912;28;20542;-63
2021/08/14 09:02:47;;;;;;;11.07;7.70;;;39.50;64.30;;;;;;4993978;28;20235;-63
2021/08/14 09:05:16;;;;;;;7.73;7.00;;;39.20;62.70;;;;;;4993815;28;20229;-63
2021/08/14 09:07:45;;;;;;;7.53;6.83;;;39.40;60.90;;;;;;4993711;28;20288;-63
2021/08/14 09:10:13;;;;;;;8.00;7.40;;;39.00;61.10;;;;;;4994186;28;20205;-63
2021/08/14 09:12:43;;;;;;;8.67;7.97;;;38.80;60.60;;;;;;4994206;28;20456;-63
2021/08/14 09:15:16;;;;;;;7.83;7.33;;;38.60;62.90;;;;;;4994363;28;20842;-63
2021/08/14 09:17:43;;;;;;;8.07;7.40;;;38.70;63.30;;;;;;4994195;28;20195;-63
2021/08/14 09:20:13;;;;;;;6.93;6.40;;;39.10;60.40;;;;;;4993715;28;20450;-63
2021/08/14 09:22:42;;;;;;;8.03;7.37;;;39.30;59.80;;;;;;4996373;28;20486;-63
2021/08/14 09:25:14;;;;;;;8.13;7.33;;;39.40;57.60;;;;;;4997452;28;21002;-63
2021/08/14 09:27:57;;;;;;;7.00;6.47;;;39.10;58.10;;;;;;4997772;28;20540;-62
2021/08/14 09:30:47;;;;;;;6.37;5.90;;;39.50;58.90;;;;;;4997440;28;20698;-63
2021/08/14 09:33:15;;;;;;;9.10;8.33;;;40.10;58.70;;;;;;4997777;28;20182;-62
2021/08/14 09:35:43;;;;;;;6.70;6.20;;;40.00;56.30;;;;;;4997266;28;20236;-62
2021/08/14 09:38:11;;;;;;;6.40;6.00;;;39.40;57.90;;;;;;4997654;28;20198;-63
2021/08/14 09:40:40;;;;;;;6.70;6.10;;;39.70;57.10;;;;;;4997158;28;20653;-63
2021/08/14 09:43:09;;;;;;;11.97;7.90;;;40.10;58.70;;;;;;4997443;28;20214;-62
2021/08/14 09:45:36;;;;;;;7.75;7.05;;;40.30;57.60;;;;;;4997375;28;20225;-63
2021/08/14 09:48:20;;;;;;;6.30;5.90;;;40.40;55.60;;;;;;4997933;28;20197;-63
2021/08/14 09:50:47;;;;;;;6.40;5.80;;;40.10;56.90;;;;;;4997500;28;20201;-64
2021/08/14 09:53:17;;;;;;;6.93;6.47;;;40.50;54.60;;;;;;4997252;28;20206;-64
2021/08/14 09:55:46;;;;;;;7.63;6.93;;;40.80;54.00;;;;;;4997306;28;20301;-64
2021/08/14 09:58:17;;;;;;;7.83;7.33;;;40.80;53.20;;;;;;4996878;28;20695;-64
2021/08/14 10:00:45;;;;;;;7.87;7.17;;;40.40;54.70;;;;;;4997397;28;20245;-64
2021/08/14 10:03:15;;;;;;;8.40;7.80;;;40.10;55.50;;;;;;4997043;28;20233;-64
2021/08/14 10:05:42;;;;;;;8.07;6.90;;;40.20;53.70;;;;;;4997499;28;20225;-63
2021/08/14 10:08:09;;;;;;;7.03;6.63;;;40.50;55.30;;;;;;4997131;28;20226;-64
2021/08/14 10:10:36;;;;;;;6.40;5.90;;;41.20;52.80;;;;;;4997045;28;20225;-64
2021/08/14 10:13:04;;;;;;;8.05;7.47;;;41.40;54.20;;;;;;4996942;28;20201;-64
2021/08/14 10:15:32;;;;;;;8.00;7.22;;;41.50;52.60;;;;;;4996837;28;20222;-65
2021/08/14 10:17:59;;;;;;;7.80;7.20;;;40.80;52.10;;;;;;4996712;28;20724;-64
2021/08/14 10:20:26;;;;;;;8.00;7.30;;;40.10;52.60;;;;;;4996859;28;20275;-64
2021/08/14 10:22:57;;;;;;;7.77;7.17;;;38.90;54.10;;;;;;4996799;28;20574;-64
2021/08/14 10:25:24;;;;;;;7.50;6.90;;;38.70;56.30;;;;;;4996644;28;20508;-64
2021/08/14 10:27:55;;;;;;;8.00;7.30;;;39.30;55.40;;;;;;4996812;28;20228;-64
2021/08/14 10:30:43;;;;;;;7.30;6.67;;;39.70;54.60;;;;;;4996464;28;20629;-64
2021/08/14 10:33:35;;;;;;;7.87;7.27;;;40.30;56.20;;;;;;4996149;28;20186;-64
2021/08/14 10:36:47;;;;;;;8.07;7.37;;;40.60;53.70;;;;;;4996603;28;20212;-63
2021/08/14 10:39:19;;;;;;;8.10;7.40;;;40.70;54.40;;;;;;4996448;28;20222;-65
2021/08/14 10:41:47;;;;;;;7.40;6.85;;;40.80;52.90;;;;;;4996101;28;20563;-65
2021/08/14 10:44:14;;;;;;;8.70;7.82;;;41.20;53.10;;;;;;4996556;28;20217;-64
2021/08/14 10:46:51;;;;;;;7.67;7.07;;;40.80;52.50;;;;;;4996336;28;20205;-64
2021/08/14 10:49:37;;;;;;;7.27;6.77;;;40.70;53.30;;;;;;4996443;28;20182;-64
2021/08/14 10:52:11;;;;;;;8.93;8.10;;;40.60;53.80;;;;;;4996274;28;20194;-64
2021/08/14 10:55:04;;;;;;;7.47;6.47;;;40.50;55.50;;;;;;4996139;28;20213;-64
2021/08/14 10:58:16;;;;;;;7.50;6.67;;;40.50;55.10;;;;;;4995923;28;20205;-64
2021/08/14 11:00:42;;;;;;;7.78;6.72;;;40.40;54.10;;;;;;4995835;28;20585;-64
2021/08/14 11:03:12;;;;;;;7.97;7.35;;;40.90;52.80;;;;;;4996249;28;20213;-64
2021/08/14 11:05:41;;;;;;;7.35;6.85;;;41.10;56.10;;;;;;4995723;28;20226;-64
2021/08/14 11:08:28;;;;;;;7.55;7.00;;;41.10;54.80;;;;;;4996126;28;20194;-64
2021/08/14 11:10:55;;;;;;;7.95;7.25;;;40.90;54.70;;;;;;4996420;28;20182;-63
2021/08/14 11:13:40;;;;;;;7.53;6.80;;;41.10;55.50;;;;;;4996266;28;20202;-64
2021/08/14 11:16:07;;;;;;;8.70;8.00;;;41.10;53.70;;;;;;4994994;28;20632;-63
2021/08/14 11:18:56;;;;;;;7.60;6.90;;;41.10;53.80;;;;;;4995822;28;20577;-63
2021/08/14 11:21:43;;;;;;;8.40;7.57;;;40.80;53.30;;;;;;4995441;28;20190;-63
2021/08/14 11:24:11;;;;;;;10.93;8.03;;;40.60;54.70;;;;;;4995416;28;20815;-63
2021/08/14 11:26:39;;;;;;;8.93;7.30;;;40.10;54.00;;;;;;4995697;28;20658;-63
2021/08/14 11:29:07;;;;;;;8.40;7.30;;;39.30;55.90;;;;;;4995938;28;20466;-63
2021/08/14 11:31:34;;;;;;;8.07;7.43;;;38.70;56.00;;;;;;4995258;28;20941;-64
2021/08/14 11:34:12;;;;;;;8.40;7.80;;;37.40;55.90;;;;;;4995368;28;20844;-63
2021/08/14 11:36:40;;;;;;;8.40;7.80;;;36.60;58.60;;;;;;4995550;28;20438;-63
2021/08/14 11:39:07;;;;;;;8.47;7.90;;;36.10;61.60;;;;;;4995457;28;20542;-63
2021/08/14 11:41:34;;;;;;;8.50;7.90;;;35.70;61.10;;;;;;4995465;28;20461;-64
2021/08/14 11:44:03;;;;;;;8.20;7.53;;;35.30;61.50;;;;;;4994913;28;20492;-64
2021/08/14 11:46:30;;;;;;;8.77;8.00;;;35.30;62.50;;;;;;4995335;28;20461;-63
2021/08/14 11:49:01;;;;;;;10.40;7.60;;;35.40;62.70;;;;;;4995369;28;20454;-64
2021/08/14 11:51:30;;;;;;;7.90;7.30;;;35.30;64.60;;;;;;4996181;28;20469;-63
2021/08/14 11:54:05;;;;;;;9.50;8.70;;;35.50;66.60;;;;;;4995045;28;20477;-63
2021/08/14 11:56:32;;;;;;;7.83;7.33;;;35.70;65.00;;;;;;4994724;28;20960;-63
2021/08/14 11:58:59;;;;;;;9.07;8.20;;;35.80;65.50;;;;;;4995407;28;20459;-63
2021/08/14 12:01:26;;;;;;;8.20;7.60;;;35.80;63.70;;;;;;4995143;28;20457;-63
2021/08/14 12:03:58;;;;;;;8.23;7.63;;;35.10;61.10;;;;;;4994453;28;20488;-63
2021/08/14 12:06:30;;;;;;;8.70;7.87;;;34.70;65.70;;;;;;4995358;28;20448;-64
2021/08/14 12:08:58;;;;;;;8.63;7.97;;;34.50;63.10;;;;;;4995030;28;20841;-63
2021/08/14 12:11:27;;;;;;;10.63;9.10;;;34.40;63.70;;;;;;4995124;28;20453;-64
2021/08/14 12:14:14;;;;;;;8.37;7.57;;;34.40;65.60;;;;;;4995041;28;20499;-63
2021/08/14 12:16:41;;;;;;;8.77;7.87;;;34.70;67.60;;;;;;4994490;28;20955;-65
2021/08/14 12:19:14;;;;;;;8.83;7.63;;;34.90;68.00;;;;;;4995054;28;20944;-64
2021/08/14 12:21:42;;;;;;;7.57;6.97;;;34.40;65.60;;;;;;4995244;28;20500;-65
2021/08/14 12:24:10;;;;;;;8.97;7.77;;;34.70;66.70;;;;;;4994716;28;20503;-65
2021/08/14 12:26:37;;;;;;;7.80;7.07;;;34.70;66.50;;;;;;4995108;28;20457;-65
2021/08/14 12:29:05;;;;;;;8.60;7.70;;;35.00;68.90;;;;;;4996240;28;20461;-65
2021/08/14 12:31:44;;;;;;;11.27;8.10;;;35.20;65.50;;;;;;4996567;28;20456;-64
2021/08/14 12:34:22;;;;;;;8.93;8.20;;;35.10;64.90;;;;;;4995093;28;20483;-64
2021/08/14 12:37:06;;;;;;;10.87;8.07;;;35.30;66.80;;;;;;4994793;28;20443;-65
2021/08/14 12:39:46;;;;;;;8.23;7.63;;;35.60;66.20;;;;;;4995446;28;20447;-64
2021/08/14 12:42:18;;;;;;;7.97;7.37;;;35.60;62.80;;;;;;4994917;28;20464;-64
2021/08/14 12:44:45;;;;;;;11.60;8.00;;;35.60;64.10;;;;;;4994546;28;20488;-63